Time;durP1;ratioP1;P1;durP2;ratioP2;P2;SDS_P1;SDS_P2;PMS_P1;PMS_P2;Temp;Humidity;BMP_temperature;BMP_pressure;BME280_temperature;BME280_humidity;BME280_pressure;Samples;Min_cycle;Max_cycle;Signal;HPM_P1;HPM_P2
2022/08/05 00:01:01;;;;;;;2.75;2.53;;;21.70;91.20;;;;;;4996015;28;20806;-54
2022/08/05 00:03:27;;;;;;;4.18;3.13;;;21.70;91.20;;;;;;4995112;28;20018;-55
2022/08/05 00:05:53;;;;;;;3.33;2.88;;;21.70;91.20;;;;;;4995807;28;20022;-54
2022/08/05 00:08:18;;;;;;;2.95;2.65;;;21.70;91.20;;;;;;4993576;28;20023;-55
2022/08/05 00:10:44;;;;;;;2.90;2.60;;;21.80;91.30;;;;;;4993954;28;20015;-55
2022/08/05 00:13:10;;;;;;;3.67;2.97;;;21.80;91.20;;;;;;4994345;28;20092;-56
2022/08/05 00:15:36;;;;;;;2.67;2.47;;;21.80;91.30;;;;;;4991881;28;20031;-55
2022/08/05 00:18:01;;;;;;;3.05;2.70;;;21.80;91.30;;;;;;4995402;28;20026;-55
2022/08/05 00:20:27;;;;;;;3.35;3.03;;;21.90;91.20;;;;;;4986895;28;20030;-54
2022/08/05 00:22:53;;;;;;;3.88;3.17;;;21.90;91.20;;;;;;4997375;28;20072;-55
2022/08/05 00:25:19;;;;;;;3.72;3.22;;;21.90;91.20;;;;;;4994777;28;20068;-55
2022/08/05 00:27:44;;;;;;;4.50;3.35;;;21.90;91.10;;;;;;4992938;28;20367;-55
2022/08/05 00:30:10;;;;;;;3.90;3.28;;;21.90;91.20;;;;;;4992145;28;20026;-54
2022/08/05 00:32:36;;;;;;;3.35;3.03;;;21.90;91.20;;;;;;4995594;28;20050;-54
2022/08/05 00:35:02;;;;;;;3.88;3.38;;;21.80;91.20;;;;;;4996342;28;20437;-55
2022/08/05 00:37:28;;;;;;;3.88;3.25;;;21.80;91.10;;;;;;4996213;28;20429;-53
2022/08/05 00:39:53;;;;;;;3.42;3.13;;;21.80;91.10;;;;;;4997654;28;20045;-54
2022/08/05 00:42:33;;;;;;;3.10;2.80;;;21.80;91.10;;;;;;4998197;28;20493;-55
2022/08/05 00:44:59;;;;;;;3.00;2.72;;;21.80;91.30;;;;;;5003658;28;20030;-55
2022/08/05 00:47:25;;;;;;;3.38;2.97;;;21.80;91.40;;;;;;4998023;28;20109;-55
2022/08/05 00:49:50;;;;;;;3.10;2.80;;;21.70;91.20;;;;;;4998215;28;20117;-54
2022/08/05 00:52:16;;;;;;;3.13;2.83;;;21.70;91.20;;;;;;4993938;28;20554;-55
2022/08/05 00:54:42;;;;;;;3.35;3.00;;;21.70;91.30;;;;;;5001110;28;20513;-54
2022/08/05 00:57:07;;;;;;;3.30;3.00;;;21.70;91.30;;;;;;4998858;28;20579;-55
2022/08/05 00:59:33;;;;;;;3.90;3.10;;;21.70;91.30;;;;;;4993185;28;20014;-55
2022/08/05 01:01:59;;;;;;;3.42;3.13;;;21.70;91.30;;;;;;5003670;28;20079;-55
2022/08/05 01:04:24;;;;;;;3.33;3.00;;;21.70;91.40;;;;;;4999182;28;20062;-54
2022/08/05 01:06:50;;;;;;;3.35;3.00;;;21.70;91.40;;;;;;4993281;28;20045;-55
2022/08/05 01:09:15;;;;;;;3.92;2.85;;;21.70;91.40;;;;;;5000935;28;20026;-55
2022/08/05 01:11:45;;;;;;;4.03;3.25;;;21.70;91.40;;;;;;4997080;28;20026;-54
2022/08/05 01:14:25;;;;;;;4.13;3.45;;;21.70;91.50;;;;;;4995292;28;20054;-54
2022/08/05 01:17:05;;;;;;;3.47;2.95;;;21.70;91.30;;;;;;4990880;28;20042;-55
2022/08/05 01:20:08;;;;;;;4.75;3.47;;;21.70;91.30;;;;;;5001439;28;20528;-54
2022/08/05 01:22:50;;;;;;;4.80;3.70;;;21.70;91.40;;;;;;4993336;28;20019;-55
2022/08/05 01:25:16;;;;;;;3.88;3.42;;;21.70;91.60;;;;;;4991752;28;20437;-55
2022/08/05 01:27:56;;;;;;;7.03;4.65;;;21.70;91.60;;;;;;4997574;28;20054;-55
2022/08/05 01:30:25;;;;;;;4.32;3.92;;;21.70;91.60;;;;;;4996454;28;20081;-55
2022/08/05 01:32:52;;;;;;;3.88;3.17;;;21.70;91.90;;;;;;4996230;28;20037;-54
2022/08/05 01:35:24;;;;;;;4.40;3.65;;;21.70;91.70;;;;;;5000299;28;20076;-52
2022/08/05 01:37:53;;;;;;;4.25;3.83;;;21.70;91.70;;;;;;5010926;28;20030;-52
2022/08/05 01:40:25;;;;;;;5.90;4.30;;;21.70;91.70;;;;;;4999797;28;20025;-53
2022/08/05 01:42:53;;;;;;;6.72;5.20;;;21.70;91.80;;;;;;4993827;28;20034;-53
2022/08/05 01:45:20;;;;;;;6.53;4.57;;;21.70;91.90;;;;;;5003732;28;20026;-53
2022/08/05 01:47:48;;;;;;;5.63;4.38;;;21.60;92.00;;;;;;5001325;28;20022;-52
2022/08/05 01:50:26;;;;;;;5.20;3.97;;;21.60;92.00;;;;;;4998484;28;20033;-55
2022/08/05 01:52:55;;;;;;;6.40;5.13;;;21.60;92.00;;;;;;4995844;28;20026;-55
2022/08/05 01:55:23;;;;;;;4.38;3.50;;;21.60;92.00;;;;;;5007526;28;20037;-55
2022/08/05 01:57:52;;;;;;;4.45;3.78;;;21.60;92.00;;;;;;4993648;28;20041;-55
2022/08/05 02:00:18;;;;;;;5.45;4.28;;;21.60;92.10;;;;;;4995530;28;20033;-55
2022/08/05 02:02:57;;;;;;;6.20;4.82;;;21.70;92.20;;;;;;4996281;28;20026;-55
2022/08/05 02:05:29;;;;;;;5.55;4.00;;;21.70;92.10;;;;;;4993227;28;20029;-55
2022/08/05 02:07:56;;;;;;;5.88;4.05;;;21.70;92.30;;;;;;4993304;28;20186;-55
2022/08/05 02:10:22;;;;;;;3.63;3.28;;;21.70;92.30;;;;;;4997418;28;20030;-55
2022/08/05 02:12:47;;;;;;;5.45;4.30;;;21.70;92.40;;;;;;4998537;28;20034;-55
2022/08/05 02:15:26;;;;;;;4.80;4.00;;;21.70;92.40;;;;;;4991089;28;20484;-55
2022/08/05 02:18:05;;;;;;;7.22;5.22;;;21.80;92.40;;;;;;4996412;28;20608;-55
2022/08/05 02:24:00;;;;;;;5.35;4.22;;;21.80;92.20;;;;;;4994040;28;20552;-55
2022/08/05 02:26:39;;;;;;;5.85;3.95;;;21.80;92.20;;;;;;4992552;28;20077;-55
2022/08/05 02:29:10;;;;;;;5.78;4.18;;;21.80;92.30;;;;;;4993041;28;20030;-55
2022/08/05 02:31:37;;;;;;;;;;;21.80;92.40;;;;;;4997163;28;20031;-56
2022/08/05 02:34:07;;;;;;;4.10;3.60;;;21.80;92.30;;;;;;4992395;28;19972;-56
2022/08/05 02:36:35;;;;;;;4.85;4.20;;;21.80;92.40;;;;;;4993690;28;20386;-55
2022/08/05 02:39:04;;;;;;;5.38;3.97;;;21.80;92.50;;;;;;5005039;28;20117;-55
2022/08/05 02:41:32;;;;;;;5.05;4.07;;;21.80;92.60;;;;;;4997050;28;21256;-56
2022/08/05 02:43:59;;;;;;;4.53;3.70;;;21.70;92.70;;;;;;4995727;28;20049;-55
2022/08/05 02:46:26;;;;;;;4.43;3.50;;;21.70;92.80;;;;;;5004898;28;20440;-55
2022/08/05 02:48:53;;;;;;;4.22;3.50;;;21.70;92.90;;;;;;4998037;28;20026;-55
2022/08/05 02:51:20;;;;;;;4.15;3.55;;;21.70;93.00;;;;;;4994700;28;20049;-56
2022/08/05 02:53:47;;;;;;;4.43;3.50;;;21.70;93.00;;;;;;4996919;28;20030;-55
2022/08/05 02:56:13;;;;;;;5.32;4.10;;;21.70;93.10;;;;;;4997725;28;20014;-55
2022/08/05 02:58:40;;;;;;;4.53;3.60;;;21.70;93.10;;;;;;4993428;28;20015;-55
2022/08/05 03:01:09;;;;;;;4.55;3.65;;;21.70;93.10;;;;;;4993450;28;20393;-55
2022/08/05 03:03:39;;;;;;;4.88;3.50;;;21.70;93.30;;;;;;4999587;28;20026;-55
2022/08/05 03:06:08;;;;;;;3.80;3.30;;;21.70;93.00;;;;;;4995596;28;20018;-56
2022/08/05 03:08:36;;;;;;;3.25;2.95;;;21.70;93.10;;;;;;4993978;28;20011;-55
2022/08/05 03:11:01;;;;;;;4.93;3.90;;;21.80;93.10;;;;;;4995736;28;20032;-55
2022/08/05 03:13:27;;;;;;;4.28;3.40;;;21.80;93.10;;;;;;5001561;28;20456;-55
2022/08/05 03:15:53;;;;;;;4.45;3.75;;;21.80;93.10;;;;;;4995785;28;20406;-55
2022/08/05 03:18:18;;;;;;;4.05;3.63;;;21.80;93.10;;;;;;4996046;28;20364;-55
2022/08/05 03:20:44;;;;;;;3.97;3.47;;;21.80;93.10;;;;;;5002399;28;20450;-55
2022/08/05 03:23:10;;;;;;;5.72;4.10;;;21.80;93.10;;;;;;4997705;28;20061;-55
2022/08/05 03:25:37;;;;;;;4.22;3.78;;;21.80;93.10;;;;;;4996752;28;20037;-55
2022/08/05 03:28:05;;;;;;;3.95;3.40;;;21.80;93.00;;;;;;4993152;28;20030;-55
2022/08/05 03:30:33;;;;;;;4.82;3.97;;;21.90;93.00;;;;;;4999470;28;20030;-55
2022/08/05 03:33:04;;;;;;;5.05;3.78;;;21.90;93.20;;;;;;4998090;28;20081;-55
2022/08/05 03:35:31;;;;;;;4.70;3.60;;;21.90;92.90;;;;;;4993082;28;20093;-55
2022/08/05 03:37:58;;;;;;;5.25;4.00;;;21.90;92.90;;;;;;4995596;28;20154;-56
2022/08/05 03:40:25;;;;;;;6.45;4.97;;;21.90;92.90;;;;;;4992370;28;20033;-56
2022/08/05 03:42:51;;;;;;;5.30;4.45;;;21.90;92.80;;;;;;4993283;28;20491;-55
2022/08/05 03:45:17;;;;;;;5.20;4.45;;;21.90;92.80;;;;;;5003076;28;20021;-55
2022/08/05 03:47:42;;;;;;;6.43;5.05;;;21.90;92.90;;;;;;4990584;28;20478;-55
2022/08/05 03:50:08;;;;;;;5.82;4.50;;;22.00;92.90;;;;;;4996712;28;20031;-55
2022/08/05 03:52:43;;;;;;;5.72;4.72;;;22.00;92.80;;;;;;4992582;28;20025;-55
2022/08/05 03:55:14;;;;;;;4.57;4.03;;;22.00;92.90;;;;;;5000718;28;20030;-55
2022/08/05 03:57:42;;;;;;;6.20;4.65;;;22.10;93.10;;;;;;4995593;28;20021;-55
2022/08/05 04:00:12;;;;;;;5.22;4.32;;;22.10;92.80;;;;;;4994008;28;20034;-55
2022/08/05 04:02:41;;;;;;;6.72;5.28;;;22.10;92.70;;;;;;4985744;28;20101;-55
2022/08/05 04:05:08;;;;;;;5.32;4.40;;;22.20;92.70;;;;;;4996331;28;20117;-55
2022/08/05 04:07:34;;;;;;;5.63;5.00;;;22.20;92.60;;;;;;4995224;28;20105;-54
2022/08/05 04:10:00;;;;;;;6.13;4.80;;;22.20;92.60;;;;;;4999969;28;20105;-54
2022/08/05 04:12:27;;;;;;;6.82;5.28;;;22.20;92.50;;;;;;4991566;28;20031;-54
2022/08/05 04:14:53;;;;;;;6.80;5.38;;;22.30;92.50;;;;;;4994663;28;20034;-56
2022/08/05 04:17:19;;;;;;;7.10;5.47;;;22.30;92.50;;;;;;4995752;28;20381;-56
2022/08/05 04:19:47;;;;;;;6.43;5.40;;;22.40;92.40;;;;;;4999029;28;20105;-52
2022/08/05 04:22:13;;;;;;;5.60;4.65;;;22.40;92.30;;;;;;4995194;28;20022;-53
2022/08/05 04:24:44;;;;;;;5.88;4.70;;;22.50;92.30;;;;;;4994147;28;20023;-51
2022/08/05 04:27:11;;;;;;;6.68;4.97;;;22.50;92.10;;;;;;4986283;28;20404;-52
2022/08/05 04:29:36;;;;;;;5.57;4.40;;;22.50;92.00;;;;;;4998682;28;20061;-53
2022/08/05 04:32:02;;;;;;;5.30;4.50;;;22.60;91.90;;;;;;4997119;28;20054;-53
2022/08/05 04:34:28;;;;;;;5.32;4.03;;;22.60;91.90;;;;;;4991799;28;20030;-53
2022/08/05 04:36:53;;;;;;;6.40;5.28;;;22.60;91.80;;;;;;4991776;28;20018;-52
2022/08/05 04:39:20;;;;;;;6.05;4.78;;;22.60;91.80;;;;;;5005017;28;20022;-53
2022/08/05 04:41:48;;;;;;;5.35;4.43;;;22.60;91.80;;;;;;4994246;28;20022;-52
2022/08/05 04:44:13;;;;;;;5.90;4.35;;;22.70;91.80;;;;;;4990941;28;20029;-52
2022/08/05 04:46:39;;;;;;;5.97;4.80;;;22.70;91.80;;;;;;4996988;28;20026;-53
2022/08/05 04:49:06;;;;;;;5.30;4.32;;;22.60;91.80;;;;;;5001516;28;20110;-52
2022/08/05 04:51:31;;;;;;;4.53;3.80;;;22.60;91.80;;;;;;4993935;28;20058;-53
2022/08/05 04:53:58;;;;;;;5.38;3.92;;;22.70;92.10;;;;;;4992634;28;20065;-54
2022/08/05 04:56:24;;;;;;;6.25;4.68;;;22.60;91.80;;;;;;4995750;28;20474;-55
2022/08/05 04:58:49;;;;;;;6.07;4.55;;;22.60;91.80;;;;;;4997314;28;20072;-55
2022/08/05 05:01:15;;;;;;;5.53;4.45;;;22.70;91.90;;;;;;4990601;28;20029;-55
2022/08/05 05:03:41;;;;;;;5.30;4.30;;;22.70;91.90;;;;;;4989488;28;20046;-55
2022/08/05 05:06:10;;;;;;;5.50;4.35;;;22.70;91.90;;;;;;5001952;28;20021;-55
2022/08/05 05:08:37;;;;;;;5.22;4.45;;;22.70;91.90;;;;;;4995988;28;20025;-55
2022/08/05 05:11:03;;;;;;;4.85;4.10;;;22.70;91.90;;;;;;4994721;28;20100;-55
2022/08/05 05:13:28;;;;;;;4.85;4.10;;;22.70;91.80;;;;;;4991382;28;20041;-55
2022/08/05 05:15:54;;;;;;;6.03;4.90;;;22.70;91.90;;;;;;4999008;28;20034;-55
2022/08/05 05:18:20;;;;;;;6.03;4.85;;;22.70;91.90;;;;;;4995641;28;20493;-55
2022/08/05 05:20:46;;;;;;;6.25;4.78;;;22.70;91.90;;;;;;4975000;28;20364;-55
2022/08/05 05:23:12;;;;;;;5.90;4.70;;;22.70;91.90;;;;;;4976823;28;20022;-56
2022/08/05 05:25:42;;;;;;;7.43;5.55;;;22.70;91.90;;;;;;4994352;28;20429;-55
2022/08/05 05:28:09;;;;;;;5.78;4.68;;;22.80;91.80;;;;;;4994465;28;20033;-55
2022/08/05 05:30:36;;;;;;;6.28;5.20;;;22.80;91.80;;;;;;4993348;28;20105;-56
2022/08/05 05:33:03;;;;;;;5.72;4.72;;;22.80;91.80;;;;;;4994595;28;20489;-55
2022/08/05 05:35:30;;;;;;;5.70;4.70;;;22.80;91.60;;;;;;4997342;28;20025;-55
2022/08/05 05:38:01;;;;;;;6.10;5.13;;;22.90;91.60;;;;;;4994733;28;20109;-55
2022/08/05 05:40:29;;;;;;;6.20;5.30;;;22.90;91.50;;;;;;4993034;28;20449;-55
2022/08/05 05:42:54;;;;;;;5.70;4.80;;;22.90;91.50;;;;;;4988587;28;20048;-55
2022/08/05 05:45:20;;;;;;;7.07;5.38;;;22.90;91.50;;;;;;4987544;28;20030;-55
2022/08/05 05:47:46;;;;;;;5.30;4.38;;;22.90;91.40;;;;;;4996124;28;20124;-55
2022/08/05 05:50:15;;;;;;;5.53;4.75;;;22.90;91.40;;;;;;4991080;28;20030;-55
2022/08/05 05:52:41;;;;;;;7.25;5.72;;;22.90;91.50;;;;;;4984736;28;20037;-56
2022/08/05 05:55:10;;;;;;;7.63;5.50;;;22.90;91.40;;;;;;4994480;28;20044;-53
2022/08/05 05:57:37;;;;;;;5.78;4.85;;;22.90;91.40;;;;;;5001532;28;20025;-53
2022/08/05 06:00:11;;;;;;;6.22;5.10;;;22.90;91.40;;;;;;4988897;28;20073;-52
2022/08/05 06:02:37;;;;;;;6.38;5.38;;;22.90;91.40;;;;;;4986960;28;20066;-55
2022/08/05 06:05:03;;;;;;;7.78;5.30;;;23.00;91.40;;;;;;4986599;28;20133;-53
2022/08/05 06:07:28;;;;;;;6.25;5.40;;;23.00;91.40;;;;;;4983664;28;20429;-53
2022/08/05 06:09:54;;;;;;;6.63;5.28;;;23.00;91.30;;;;;;4983226;28;20551;-55
2022/08/05 06:12:19;;;;;;;7.40;5.10;;;23.00;91.20;;;;;;4982968;28;20157;-54
2022/08/05 06:14:45;;;;;;;7.55;5.90;;;23.00;91.20;;;;;;4981327;28;20054;-54
2022/08/05 06:17:11;;;;;;;7.82;6.57;;;23.00;91.10;;;;;;4983263;28;20030;-54
2022/08/05 06:19:37;;;;;;;6.95;6.05;;;23.00;91.10;;;;;;4992253;28;20611;-55
2022/08/05 06:22:03;;;;;;;7.07;5.30;;;23.00;91.10;;;;;;4983332;28;20030;-54
2022/08/05 06:24:30;;;;;;;7.00;5.53;;;23.00;91.10;;;;;;4985481;28;20039;-55
2022/08/05 06:26:55;;;;;;;6.97;5.82;;;23.00;91.20;;;;;;4982650;28;20038;-55
2022/08/05 06:29:21;;;;;;;7.80;6.03;;;23.00;91.20;;;;;;4973148;28;20508;-56
2022/08/05 06:31:47;;;;;;;6.88;5.63;;;23.00;91.20;;;;;;4982809;28;20043;-54
2022/08/05 06:34:13;;;;;;;7.05;6.03;;;23.10;91.20;;;;;;4977532;28;20099;-56
2022/08/05 06:36:39;;;;;;;6.93;5.60;;;23.10;91.10;;;;;;4985359;28;21336;-55
2022/08/05 06:39:04;;;;;;;7.60;5.80;;;23.10;91.20;;;;;;4980478;28;20084;-55
2022/08/05 06:41:30;;;;;;;7.68;6.60;;;23.10;91.00;;;;;;4980137;28;20630;-54
2022/08/05 06:43:56;;;;;;;7.32;6.03;;;23.20;90.90;;;;;;4976415;28;20139;-56
2022/08/05 06:46:22;;;;;;;7.78;6.40;;;23.20;90.90;;;;;;4983786;28;20041;-56
2022/08/05 06:48:47;;;;;;;8.50;6.68;;;23.20;90.80;;;;;;4977667;28;20030;-54
2022/08/05 06:51:13;;;;;;;9.20;6.78;;;23.20;90.70;;;;;;4973838;28;20504;-54
2022/08/05 06:53:38;;;;;;;7.35;6.05;;;23.20;90.70;;;;;;4981972;28;20443;-55
2022/08/05 06:56:04;;;;;;;9.25;7.20;;;23.20;90.70;;;;;;4977005;28;20133;-53
2022/08/05 06:58:31;;;;;;;9.82;7.00;;;23.20;90.70;;;;;;4964972;28;20054;-51
2022/08/05 07:00:58;;;;;;;8.60;6.80;;;23.20;90.60;;;;;;4971866;28;20042;-55
2022/08/05 07:03:25;;;;;;;8.73;6.65;;;23.30;90.60;;;;;;4975923;28;20031;-55
2022/08/05 07:05:51;;;;;;;7.68;6.43;;;23.30;90.50;;;;;;4971729;28;20660;-56
2022/08/05 07:08:16;;;;;;;8.90;6.80;;;23.30;90.50;;;;;;4965062;28;20038;-56
2022/08/05 07:10:42;;;;;;;9.95;7.93;;;23.30;90.60;;;;;;4963941;28;21071;-56
2022/08/05 07:18:36;;;;;;;9.68;7.00;;;23.40;90.40;;;;;;4962982;28;20117;-55
2022/08/05 07:21:02;;;;;;;8.95;7.53;;;23.40;90.40;;;;;;4969515;28;20026;-53
2022/08/05 07:23:28;;;;;;;10.77;7.85;;;23.40;90.40;;;;;;4974962;28;20038;-55
2022/08/05 07:25:53;;;;;;;11.10;8.20;;;23.40;90.20;;;;;;4983234;28;20089;-55
2022/08/05 07:28:19;;;;;;;8.93;6.65;;;23.40;90.20;;;;;;4971333;28;20401;-53
2022/08/05 07:30:45;;;;;;;10.65;7.45;;;23.40;90.20;;;;;;4959071;28;20624;-55
2022/08/05 07:33:11;;;;;;;9.27;7.22;;;23.40;90.20;;;;;;4972270;28;20061;-54
2022/08/05 07:35:38;;;;;;;9.10;7.10;;;23.40;90.20;;;;;;4975405;28;20061;-53
2022/08/05 07:38:04;;;;;;;10.73;7.88;;;23.40;90.10;;;;;;4976200;28;20033;-56
2022/08/05 07:40:30;;;;;;;9.82;7.78;;;23.30;90.20;;;;;;4970319;28;20426;-55
2022/08/05 07:42:56;;;;;;;9.23;7.05;;;23.30;90.20;;;;;;4974424;28;20031;-52
2022/08/05 07:45:22;;;;;;;9.27;7.32;;;23.20;90.20;;;;;;4968690;28;20035;-55
2022/08/05 07:47:48;;;;;;;8.57;6.57;;;23.20;90.20;;;;;;4972919;28;20156;-52
2022/08/05 07:50:14;;;;;;;12.55;9.40;;;23.20;90.30;;;;;;4965107;28;20049;-54
2022/08/05 07:52:41;;;;;;;9.98;7.50;;;23.20;90.30;;;;;;4971807;28;20125;-55
2022/08/05 07:55:08;;;;;;;10.93;8.23;;;23.30;90.30;;;;;;4967417;28;20042;-57
2022/08/05 07:57:34;;;;;;;8.38;6.78;;;23.30;90.20;;;;;;4961687;28;20034;-57
2022/08/05 08:00:01;;;;;;;9.00;6.82;;;23.40;90.20;;;;;;4965578;28;20121;-55
2022/08/05 08:02:27;;;;;;;9.75;7.35;;;23.40;90.20;;;;;;4961419;28;20488;-56
2022/08/05 08:04:54;;;;;;;8.95;6.88;;;23.50;90.20;;;;;;4974727;28;20122;-55
2022/08/05 08:07:20;;;;;;;10.18;8.02;;;23.50;90.10;;;;;;4967772;28;20042;-57
2022/08/05 08:09:46;;;;;;;8.02;6.38;;;23.60;90.10;;;;;;4962290;28;20035;-56
2022/08/05 08:12:12;;;;;;;7.25;6.13;;;23.70;90.10;;;;;;4965002;28;20045;-55
2022/08/05 08:14:39;;;;;;;7.45;5.63;;;23.90;90.30;;;;;;4969570;28;20550;-57
2022/08/05 08:17:09;;;;;;;8.82;6.13;;;24.00;90.00;;;;;;4964678;28;20034;-56
2022/08/05 08:19:38;;;;;;;9.43;6.93;;;24.10;89.90;;;;;;4959501;28;20038;-56
2022/08/05 08:22:06;;;;;;;7.93;6.65;;;24.20;89.60;;;;;;4966180;28;20597;-56
2022/08/05 08:24:32;;;;;;;6.53;5.63;;;24.40;89.30;;;;;;4969585;28;20965;-54
2022/08/05 08:26:58;;;;;;;8.27;6.80;;;24.50;88.80;;;;;;4963941;28;20105;-54
2022/08/05 08:29:23;;;;;;;8.73;6.93;;;24.60;88.50;;;;;;4965768;28;20516;-53
2022/08/05 08:31:50;;;;;;;9.10;6.45;;;24.60;88.10;;;;;;4965856;28;20034;-53
2022/08/05 08:34:21;;;;;;;7.35;5.78;;;24.70;88.10;;;;;;4964104;28;20027;-55
2022/08/05 08:36:47;;;;;;;8.55;6.43;;;24.80;88.00;;;;;;4966568;28;20030;-55
2022/08/05 08:39:13;;;;;;;7.05;5.75;;;24.90;87.60;;;;;;4961342;28;20049;-54
2022/08/05 08:41:48;;;;;;;7.30;6.28;;;25.00;87.20;;;;;;4969397;28;20041;-54
2022/08/05 08:44:16;;;;;;;7.88;6.35;;;25.00;86.70;;;;;;4967247;28;22927;-55
2022/08/05 08:46:43;;;;;;;7.63;5.85;;;25.00;86.30;;;;;;4968065;28;20062;-54
2022/08/05 08:49:13;;;;;;;7.18;5.93;;;25.10;86.20;;;;;;4963571;28;20042;-52
2022/08/05 08:51:40;;;;;;;6.95;5.40;;;25.10;86.00;;;;;;4965853;28;20038;-53
2022/08/05 08:54:06;;;;;;;7.05;5.72;;;25.10;85.90;;;;;;4969562;28;20117;-55
2022/08/05 08:56:32;;;;;;;7.72;6.18;;;25.20;85.80;;;;;;4964447;28;20108;-53
2022/08/05 08:58:59;;;;;;;7.15;6.30;;;25.20;85.60;;;;;;4968235;28;20023;-53
2022/08/05 09:01:26;;;;;;;7.60;6.63;;;25.20;85.40;;;;;;4964937;28;20085;-54
2022/08/05 09:03:55;;;;;;;7.30;6.35;;;25.20;85.10;;;;;;4968262;28;20077;-53
2022/08/05 09:06:21;;;;;;;7.70;6.20;;;25.20;85.00;;;;;;4971929;28;20038;-54
2022/08/05 09:08:47;;;;;;;7.60;6.55;;;25.10;85.10;;;;;;4973711;28;20031;-54
2022/08/05 09:11:13;;;;;;;7.05;6.00;;;25.10;84.90;;;;;;4970571;28;20544;-54
2022/08/05 09:13:40;;;;;;;7.40;6.10;;;25.10;85.00;;;;;;4976851;28;20383;-55
2022/08/05 09:16:08;;;;;;;8.85;7.78;;;25.00;84.80;;;;;;4974270;28;20034;-54
2022/08/05 09:18:35;;;;;;;8.45;6.70;;;25.00;84.90;;;;;;4970372;28;20077;-54
2022/08/05 09:21:01;;;;;;;7.57;6.47;;;25.00;84.80;;;;;;4970689;28;20034;-54
2022/08/05 09:23:27;;;;;;;7.13;5.95;;;24.90;85.00;;;;;;4975224;28;20081;-55
2022/08/05 09:26:16;;;;;;;7.53;6.00;;;24.90;85.00;;;;;;4973526;28;20110;-53
2022/08/05 09:28:42;;;;;;;6.43;5.57;;;24.90;85.00;;;;;;4968166;28;20038;-54
2022/08/05 09:31:10;;;;;;;6.75;5.82;;;24.90;85.20;;;;;;4973370;28;20026;-54
2022/08/05 09:33:52;;;;;;;7.47;5.50;;;24.80;85.00;;;;;;4966770;28;20042;-55
2022/08/05 09:36:18;;;;;;;7.50;6.15;;;24.80;85.10;;;;;;4966292;28;20038;-54
2022/08/05 09:39:00;;;;;;;6.72;5.85;;;24.80;85.10;;;;;;4971357;28;20034;-55
2022/08/05 09:41:25;;;;;;;6.60;5.80;;;24.80;85.10;;;;;;4961910;28;20038;-54
2022/08/05 09:43:52;;;;;;;8.25;6.75;;;24.80;85.40;;;;;;4972467;28;21924;-53
2022/08/05 09:46:29;;;;;;;7.40;6.10;;;24.80;85.30;;;;;;4968166;28;20040;-54
2022/08/05 09:48:57;;;;;;;7.30;6.07;;;24.80;85.10;;;;;;4966151;28;20072;-53
2022/08/05 09:51:37;;;;;;;6.95;5.63;;;24.80;85.20;;;;;;4977208;28;20029;-53
2022/08/05 09:54:07;;;;;;;7.17;5.87;;;24.80;85.20;;;;;;4971125;28;20066;-53
2022/08/05 09:56:36;;;;;;;7.50;6.40;;;24.80;85.30;;;;;;4967815;28;20041;-53
2022/08/05 09:59:07;;;;;;;6.30;5.50;;;24.80;85.40;;;;;;4969332;28;20334;-55
2022/08/05 10:01:37;;;;;;;8.15;5.90;;;24.80;85.40;;;;;;4964349;28;20917;-52
2022/08/05 10:04:06;;;;;;;7.05;6.22;;;24.90;85.30;;;;;;4959467;28;20489;-52
2022/08/05 10:06:32;;;;;;;6.32;5.70;;;24.90;85.10;;;;;;4966415;28;20118;-53
2022/08/05 10:09:14;;;;;;;7.22;5.88;;;25.00;84.90;;;;;;4970034;28;20144;-53
2022/08/05 10:11:40;;;;;;;7.15;6.00;;;25.00;84.50;;;;;;4968827;28;20481;-53
2022/08/05 10:14:29;;;;;;;6.72;5.82;;;25.00;84.60;;;;;;4961751;28;20149;-53
2022/08/05 10:17:10;;;;;;;7.32;5.80;;;25.00;84.40;;;;;;4967397;28;20053;-54
2022/08/05 10:19:36;;;;;;;7.80;6.28;;;25.00;84.50;;;;;;4962627;28;21742;-54
2022/08/05 10:22:02;;;;;;;6.47;5.55;;;25.00;84.40;;;;;;4968925;28;20038;-57
2022/08/05 10:24:31;;;;;;;8.27;6.97;;;25.00;84.30;;;;;;4957273;28;20026;-55
2022/08/05 10:26:58;;;;;;;8.45;6.35;;;24.90;84.30;;;;;;4974499;28;21119;-54
2022/08/05 10:29:25;;;;;;;7.78;6.60;;;24.90;84.00;;;;;;4977638;28;20035;-54
2022/08/05 10:31:51;;;;;;;6.80;5.90;;;24.90;84.10;;;;;;4975530;28;20146;-54
2022/08/05 10:34:18;;;;;;;7.95;6.60;;;24.80;84.00;;;;;;4971035;28;20046;-54
2022/08/05 10:36:44;;;;;;;6.47;5.45;;;24.80;84.20;;;;;;4972328;28;20054;-55
2022/08/05 10:39:20;;;;;;;7.38;6.05;;;24.80;84.10;;;;;;4970979;28;20118;-53
2022/08/05 10:41:54;;;;;;;7.70;6.28;;;24.80;84.30;;;;;;4979813;28;20708;-55
2022/08/05 10:44:22;;;;;;;6.68;5.82;;;24.80;84.40;;;;;;4975797;28;20129;-54
2022/08/05 10:46:51;;;;;;;6.82;5.95;;;24.80;84.20;;;;;;4974542;28;20069;-54
2022/08/05 10:49:18;;;;;;;7.43;6.20;;;24.90;84.30;;;;;;4969307;28;20034;-54
2022/08/05 10:51:45;;;;;;;6.80;5.72;;;25.00;84.90;;;;;;4969492;28;20049;-56
2022/08/05 10:54:12;;;;;;;8.77;6.68;;;25.00;84.10;;;;;;4972862;28;20445;-54
2022/08/05 10:56:49;;;;;;;7.28;5.90;;;25.10;84.10;;;;;;4957849;28;20057;-54
2022/08/05 10:59:24;;;;;;;7.03;5.90;;;25.20;83.90;;;;;;4969834;28;20025;-56
2022/08/05 11:02:09;;;;;;;7.75;6.45;;;25.30;83.80;;;;;;4971740;28;20034;-56
2022/08/05 11:04:47;;;;;;;7.05;6.20;;;25.40;83.30;;;;;;4976359;28;20102;-54
2022/08/05 11:07:17;;;;;;;7.07;5.97;;;25.40;83.00;;;;;;4969548;28;20084;-53
2022/08/05 11:09:51;;;;;;;7.10;6.07;;;25.30;83.00;;;;;;4968553;28;20710;-53
2022/08/05 11:12:28;;;;;;;8.10;6.57;;;25.40;83.10;;;;;;4967501;28;20030;-53
2022/08/05 11:15:07;;;;;;;7.50;6.00;;;25.30;82.90;;;;;;4933862;28;20039;-55
2022/08/05 11:17:38;;;;;;;6.55;5.70;;;25.30;82.90;;;;;;4937872;28;20031;-52
2022/08/05 11:20:28;;;;;;;8.32;6.88;;;25.20;83.00;;;;;;4932671;28;20360;-55
2022/08/05 11:22:54;;;;;;;7.88;6.53;;;25.20;83.00;;;;;;4937097;28;20549;-52
2022/08/05 11:25:30;;;;;;;7.50;6.63;;;25.20;83.30;;;;;;4931228;28;20039;-55
2022/08/05 11:28:10;;;;;;;7.75;6.15;;;25.10;83.20;;;;;;4934039;28;20093;-55
2022/08/05 11:31:11;;;;;;;6.90;5.93;;;25.10;83.40;;;;;;4921682;28;20031;-55
2022/08/05 11:33:56;;;;;;;10.07;9.00;;;25.00;83.40;;;;;;4844974;29;20029;-55
2022/08/05 11:36:50;;;;;;;8.00;7.15;;;25.00;83.60;;;;;;4925790;28;20134;-51
2022/08/05 11:39:48;;;;;;;7.85;6.82;;;25.00;83.60;;;;;;4924986;28;20077;-52
2022/08/05 11:42:16;;;;;;;6.68;5.60;;;25.00;83.80;;;;;;4932645;28;20062;-53
2022/08/05 11:44:42;;;;;;;7.78;6.60;;;24.90;83.90;;;;;;4928639;28;20169;-54
2022/08/05 11:47:08;;;;;;;7.50;6.40;;;24.90;84.10;;;;;;4928979;28;20078;-52
2022/08/05 11:49:34;;;;;;;9.32;7.38;;;24.90;84.10;;;;;;4926850;28;20036;-54
2022/08/05 11:52:01;;;;;;;7.95;6.50;;;24.90;84.20;;;;;;4925190;28;20042;-54
2022/08/05 11:54:31;;;;;;;8.35;6.32;;;24.90;84.40;;;;;;4926626;28;20059;-54
2022/08/05 11:56:57;;;;;;;7.22;6.13;;;24.90;84.60;;;;;;4922945;28;20075;-53
2022/08/05 11:59:28;;;;;;;8.05;6.88;;;24.90;84.70;;;;;;4906401;28;20035;-52
2022/08/05 12:02:01;;;;;;;8.27;6.72;;;24.90;84.60;;;;;;4925147;28;20062;-54
2022/08/05 12:04:35;;;;;;;8.60;7.68;;;24.90;84.80;;;;;;4921600;28;20721;-54
2022/08/05 12:07:01;;;;;;;8.80;7.50;;;24.90;85.00;;;;;;4928695;28;20062;-53
2022/08/05 12:09:29;;;;;;;9.20;7.85;;;24.90;85.00;;;;;;4930341;28;21126;-53
2022/08/05 12:11:54;;;;;;;8.07;7.28;;;24.90;85.10;;;;;;4930175;28;20031;-53
2022/08/05 12:14:21;;;;;;;8.55;7.63;;;24.90;85.10;;;;;;4957467;28;20054;-52
2022/08/05 12:16:47;;;;;;;8.77;7.47;;;24.90;85.30;;;;;;4965826;28;20033;-54
2022/08/05 12:19:14;;;;;;;8.05;7.03;;;24.90;85.30;;;;;;4965637;28;20030;-54
2022/08/05 12:21:49;;;;;;;8.55;6.60;;;24.90;85.40;;;;;;4955844;28;20121;-55
2022/08/05 12:24:19;;;;;;;8.50;7.22;;;24.90;85.40;;;;;;4966017;28;20081;-54
2022/08/05 12:26:48;;;;;;;7.40;6.53;;;24.90;85.30;;;;;;4965409;28;20034;-53
2022/08/05 12:29:17;;;;;;;9.00;6.88;;;24.90;85.30;;;;;;4963201;28;20108;-54
2022/08/05 12:32:12;;;;;;;8.68;7.22;;;25.00;85.40;;;;;;4968513;28;20054;-55
2022/08/05 12:34:38;;;;;;;8.25;7.28;;;25.00;85.10;;;;;;4951348;28;20368;-55
2022/08/05 12:37:11;;;;;;;8.82;7.80;;;25.00;85.20;;;;;;4961684;28;20069;-55
2022/08/05 12:39:38;;;;;;;7.18;6.28;;;25.00;85.20;;;;;;4969656;28;20046;-53
2022/08/05 12:42:14;;;;;;;7.28;6.47;;;25.00;85.20;;;;;;4964839;28;20062;-55
2022/08/05 12:44:41;;;;;;;9.07;7.60;;;25.00;85.20;;;;;;4962999;28;20048;-54
2022/08/05 12:47:06;;;;;;;6.82;5.95;;;25.00;85.30;;;;;;4960159;28;20042;-55
2022/08/05 12:49:44;;;;;;;9.25;8.25;;;25.10;85.20;;;;;;4961408;28;21214;-54
2022/08/05 12:52:15;;;;;;;7.57;6.78;;;25.00;85.10;;;;;;4955355;28;20053;-55
2022/08/05 12:54:41;;;;;;;7.82;7.03;;;25.00;84.90;;;;;;4957683;28;20034;-55
2022/08/05 12:57:10;;;;;;;9.13;8.02;;;25.10;85.00;;;;;;4957879;28;20026;-55
2022/08/05 12:59:46;;;;;;;7.70;6.55;;;25.00;85.00;;;;;;4964508;28;20559;-55
2022/08/05 13:02:20;;;;;;;8.45;7.10;;;25.10;85.10;;;;;;4957997;28;20647;-55
2022/08/05 13:04:46;;;;;;;7.47;6.03;;;25.10;85.00;;;;;;4955482;28;20933;-56